Atlanta, Georgia
Traffic Map
Current Weather Conditions
Atlanta, Georgia
Scattered Clouds
Scattered Clouds

Feels Like: 7°
Wind Chill: Ceiling: Unl
Heat Index: Visibility: 10mi
Dew Point: Wind: 8mph
Humidity: 64% Direction: 230° (SW)
Pressure: 29.96in Gusts: 0mph
Raw Report DataKATL 142352Z 23007KT 10SM FEW200 SCT250 09/03 A2996 RMK AO2 SLP148 T00940028 10144 20094 53009
Traffic Incident Summary
Active as of:
Severity:
Category:
InformationThere was an issue retrieving the traffic information for this location. Please try a different location or try again shortly.
Advertisements